createdAt,value
2018-11-13T00:00:30.645Z,7.60
2018-11-13T00:02:59.501Z,7.60
2018-11-13T00:05:28.063Z,7.60
2018-11-13T00:07:56.428Z,7.60
2018-11-13T00:10:24.816Z,7.50
2018-11-13T00:12:53.216Z,7.50
2018-11-13T00:15:22.541Z,7.50
2018-11-13T00:17:51.353Z,7.50
2018-11-13T00:20:20.078Z,7.50
2018-11-13T00:22:48.621Z,7.50
2018-11-13T00:25:17.835Z,7.60
2018-11-13T00:27:46.082Z,7.60
2018-11-13T00:30:15.908Z,7.60
2018-11-13T00:32:44.396Z,7.60
2018-11-13T00:35:13.540Z,7.60
2018-11-13T00:37:41.851Z,7.60
2018-11-13T00:40:11.005Z,7.60
2018-11-13T00:42:39.368Z,7.60
2018-11-13T00:45:08.126Z,7.60
2018-11-13T00:47:36.400Z,7.50
2018-11-13T00:50:04.931Z,7.60
2018-11-13T00:52:33.153Z,7.60
2018-11-13T00:55:01.442Z,7.60
2018-11-13T00:57:29.560Z,7.60
2018-11-13T00:59:57.719Z,7.60
2018-11-13T01:02:26.049Z,7.60
2018-11-13T01:04:54.525Z,7.60
2018-11-13T01:07:22.801Z,7.60
2018-11-13T01:09:51.089Z,7.60
2018-11-13T01:12:19.439Z,7.60
2018-11-13T01:14:48.018Z,7.60
2018-11-13T01:17:16.489Z,7.50
2018-11-13T01:19:45.120Z,7.50
2018-11-13T01:22:13.593Z,7.60
2018-11-13T01:24:41.970Z,7.50
2018-11-13T01:35:45.954Z,7.50
2018-11-13T01:41:05.027Z,7.50
2018-11-13T01:43:33.324Z,7.50
2018-11-13T01:46:01.692Z,7.60
2018-11-13T01:48:29.916Z,7.60
2018-11-13T01:50:58.218Z,7.60
2018-11-13T01:53:26.461Z,7.60
2018-11-13T01:55:54.773Z,7.60
2018-11-13T01:58:23.049Z,7.70
2018-11-13T02:00:51.493Z,7.70
2018-11-13T02:03:19.809Z,7.60
2018-11-13T02:05:48.129Z,7.60
2018-11-13T02:08:16.448Z,7.60
2018-11-13T02:10:44.752Z,7.60
2018-11-13T02:13:13.245Z,7.60
2018-11-13T02:15:41.447Z,7.60
2018-11-13T02:18:09.913Z,7.60
2018-11-13T02:20:38.105Z,7.60
2018-11-13T02:23:06.301Z,7.60
2018-11-13T02:25:34.609Z,7.60
2018-11-13T02:28:02.877Z,7.60
2018-11-13T02:30:31.053Z,7.70
2018-11-13T02:32:59.234Z,7.60
2018-11-13T02:35:27.647Z,7.60
2018-11-13T02:37:55.880Z,7.60
2018-11-13T02:40:24.041Z,7.60
2018-11-13T02:42:52.175Z,7.60
2018-11-13T02:45:20.440Z,7.60
2018-11-13T02:47:48.608Z,7.60
2018-11-13T02:50:17.947Z,7.50
2018-11-13T02:52:46.164Z,7.50
2018-11-13T02:55:14.418Z,7.40
2018-11-13T02:57:43.351Z,7.40
2018-11-13T03:00:14.316Z,7.40
2018-11-13T03:02:42.467Z,7.30
2018-11-13T03:05:12.539Z,7.40
2018-11-13T03:07:41.022Z,7.40
2018-11-13T03:10:10.816Z,7.30
2018-11-13T03:12:38.952Z,7.30
2018-11-13T03:15:08.179Z,7.30
2018-11-13T03:17:36.369Z,7.30
2018-11-13T03:20:05.452Z,7.30
2018-11-13T03:22:33.597Z,7.30
2018-11-13T03:25:01.762Z,7.40
2018-11-13T03:27:29.897Z,7.40
2018-11-13T03:29:58.112Z,7.40
2018-11-13T03:32:26.245Z,7.40
2018-11-13T03:34:54.377Z,7.40
2018-11-13T03:37:22.529Z,7.40
2018-11-13T03:39:50.690Z,7.40
2018-11-13T03:42:18.809Z,8.40
2018-11-13T03:44:46.920Z,7.50
2018-11-13T03:47:15.057Z,7.50
2018-11-13T03:49:43.157Z,7.50
2018-11-13T03:52:11.281Z,7.50
2018-11-13T03:54:39.395Z,7.50
2018-11-13T03:57:07.524Z,7.40
2018-11-13T03:59:35.629Z,7.50
2018-11-13T04:02:03.739Z,7.50
2018-11-13T04:04:31.889Z,7.40
2018-11-13T04:07:00.001Z,7.50
2018-11-13T04:09:28.120Z,7.50
2018-11-13T04:11:56.236Z,7.50
2018-11-13T04:14:24.367Z,7.50
2018-11-13T04:16:52.492Z,7.50
2018-11-13T04:19:20.615Z,7.50
2018-11-13T04:21:52.996Z,7.50
2018-11-13T04:24:21.129Z,7.50
2018-11-13T04:26:49.251Z,7.50
2018-11-13T04:29:17.411Z,7.40
2018-11-13T04:31:45.540Z,7.40
2018-11-13T04:34:13.676Z,7.40
2018-11-13T04:36:41.825Z,7.40
2018-11-13T04:39:09.957Z,7.40
2018-11-13T04:41:38.121Z,7.40
2018-11-13T04:44:06.260Z,7.40
2018-11-13T04:46:34.416Z,7.30
2018-11-13T04:49:02.600Z,7.30
2018-11-13T04:51:30.924Z,7.30
2018-11-13T04:53:59.099Z,7.30
2018-11-13T04:56:27.274Z,7.30
2018-11-13T04:58:55.425Z,7.30
2018-11-13T05:01:23.623Z,7.30
2018-11-13T05:03:51.949Z,7.30
2018-11-13T05:06:20.347Z,7.30
2018-11-13T05:08:48.653Z,7.20
2018-11-13T05:11:16.911Z,7.20
2018-11-13T05:13:45.170Z,7.30
2018-11-13T05:16:13.373Z,7.30
2018-11-13T05:18:41.725Z,7.20
2018-11-13T05:21:10.068Z,7.20
2018-11-13T05:23:38.258Z,7.30
2018-11-13T05:26:06.395Z,7.30
2018-11-13T05:28:34.753Z,7.20
2018-11-13T05:31:02.905Z,7.20
2018-11-13T05:33:31.184Z,7.20
2018-11-13T05:35:59.314Z,7.20
2018-11-13T05:38:27.449Z,7.20
2018-11-13T05:40:55.554Z,7.20
2018-11-13T05:43:23.712Z,7.30
2018-11-13T05:45:52.001Z,7.20
2018-11-13T05:48:20.161Z,7.20
2018-11-13T05:50:48.296Z,7.20
2018-11-13T05:53:16.442Z,7.20
2018-11-13T05:55:44.689Z,7.20
2018-11-13T05:58:12.876Z,7.20
2018-11-13T06:00:40.988Z,7.20
2018-11-13T06:03:09.097Z,7.20
2018-11-13T06:05:37.239Z,7.20
2018-11-13T06:08:05.793Z,7.20
2018-11-13T06:10:34.306Z,7.30
2018-11-13T06:13:02.425Z,7.30
2018-11-13T06:15:30.555Z,7.30
2018-11-13T06:17:58.679Z,7.30
2018-11-13T06:20:26.797Z,7.30
2018-11-13T06:22:55.057Z,7.30
2018-11-13T06:25:23.121Z,7.40
2018-11-13T06:27:51.249Z,7.40
2018-11-13T06:30:21.224Z,7.40
2018-11-13T06:32:49.722Z,7.40
2018-11-13T06:35:17.856Z,7.40
2018-11-13T06:37:46.007Z,7.40
2018-11-13T06:40:14.128Z,7.40
2018-11-13T06:42:42.405Z,7.40
2018-11-13T06:45:12.817Z,7.40
2018-11-13T06:47:41.353Z,7.40
2018-11-13T06:50:10.140Z,7.40
2018-11-13T06:52:38.273Z,7.40
2018-11-13T06:55:39.645Z,7.50
2018-11-13T06:58:07.772Z,7.50
2018-11-13T07:00:35.912Z,7.50
2018-11-13T07:03:04.036Z,7.50
2018-11-13T07:05:32.168Z,7.50
2018-11-13T07:08:00.389Z,7.50
2018-11-13T07:10:29.281Z,7.50
2018-11-13T07:12:57.841Z,7.50
2018-11-13T07:15:29.301Z,7.50
2018-11-13T07:17:58.790Z,7.50
2018-11-13T07:20:28.086Z,7.50
2018-11-13T07:22:56.219Z,7.60
2018-11-13T07:25:24.618Z,7.60
2018-11-13T07:27:52.897Z,7.60
2018-11-13T07:30:21.520Z,7.60
2018-11-13T07:32:49.674Z,7.60
2018-11-13T07:35:18.776Z,7.60
2018-11-13T07:37:50.536Z,7.60
2018-11-13T07:40:18.737Z,7.60
2018-11-13T07:42:46.879Z,7.60
2018-11-13T07:45:15.457Z,7.60
2018-11-13T07:47:44.880Z,7.70
2018-11-13T07:50:13.446Z,7.70
2018-11-13T07:52:41.624Z,7.70
2018-11-13T07:55:10.807Z,7.70
2018-11-13T07:57:38.988Z,7.70
2018-11-13T08:00:09.596Z,7.70
2018-11-13T08:02:37.765Z,7.70
2018-11-13T08:05:06.749Z,7.70
2018-11-13T08:07:34.960Z,7.80
2018-11-13T08:10:03.113Z,7.80
2018-11-13T08:12:31.291Z,7.80
2018-11-13T08:14:59.444Z,7.80
2018-11-13T08:17:27.616Z,7.80
2018-11-13T08:19:55.763Z,7.80
2018-11-13T08:22:24.039Z,7.80
2018-11-13T08:24:53.413Z,7.90
2018-11-13T08:27:21.560Z,7.90
2018-11-13T08:29:49.691Z,7.90
2018-11-13T08:32:17.828Z,7.90
2018-11-13T08:34:46.002Z,7.90
2018-11-13T08:37:14.095Z,7.90
2018-11-13T08:39:42.335Z,7.90
2018-11-13T08:42:10.559Z,7.90
2018-11-13T08:44:38.705Z,7.90
2018-11-13T08:47:06.835Z,7.90
2018-11-13T08:49:35.001Z,8.00
2018-11-13T08:52:03.144Z,8.00
2018-11-13T08:54:31.268Z,8.00
2018-11-13T08:56:59.402Z,8.00
2018-11-13T08:59:27.541Z,8.00
2018-11-13T09:01:55.663Z,8.00
2018-11-13T09:04:23.804Z,8.00
2018-11-13T09:06:51.988Z,8.00
2018-11-13T09:09:20.131Z,8.00
2018-11-13T09:11:48.305Z,8.10
2018-11-13T09:14:16.495Z,8.10
2018-11-13T09:16:44.649Z,8.10
2018-11-13T09:19:12.953Z,8.10
2018-11-13T09:21:41.013Z,8.20
2018-11-13T09:24:09.107Z,8.20
2018-11-13T09:26:37.231Z,8.20
2018-11-13T09:29:05.430Z,8.20
2018-11-13T09:31:33.590Z,8.30
2018-11-13T09:34:01.692Z,8.30
2018-11-13T09:36:29.811Z,8.30
2018-11-13T09:38:57.937Z,8.30
2018-11-13T09:41:26.089Z,8.30
2018-11-13T09:43:54.199Z,8.30
2018-11-13T09:46:22.336Z,8.30
2018-11-13T09:48:50.465Z,8.20
2018-11-13T09:51:18.751Z,8.20
2018-11-13T09:53:46.951Z,8.20
2018-11-13T09:56:15.057Z,8.20
2018-11-13T09:58:43.196Z,8.20
2018-11-13T10:01:11.525Z,8.20
2018-11-13T10:03:40.118Z,8.30
2018-11-13T10:06:07.565Z,8.30
2018-11-13T10:08:35.685Z,8.30
2018-11-13T10:11:03.833Z,8.30
2018-11-13T10:13:31.948Z,8.40
2018-11-13T10:16:00.061Z,8.40
2018-11-13T10:18:28.298Z,8.50
2018-11-13T10:20:56.329Z,8.50
2018-11-13T10:23:24.449Z,8.50
2018-11-13T10:25:52.598Z,8.60
2018-11-13T10:28:20.785Z,8.60
2018-11-13T10:30:48.892Z,8.60
2018-11-13T10:33:17.029Z,8.70
2018-11-13T10:35:45.151Z,8.70
2018-11-13T10:38:13.277Z,8.80
2018-11-13T10:40:41.570Z,8.80
2018-11-13T10:43:09.529Z,8.90
2018-11-13T10:45:37.660Z,8.90
2018-11-13T10:48:05.895Z,8.90
2018-11-13T10:50:34.020Z,9.00
2018-11-13T10:53:02.294Z,9.00
2018-11-13T10:55:30.435Z,9.00
2018-11-13T10:57:58.560Z,9.10
2018-11-13T11:01:03.921Z,9.20
2018-11-13T11:03:37.327Z,9.30
2018-11-13T11:06:05.453Z,9.30
2018-11-13T11:08:33.581Z,9.40
2018-11-13T11:11:01.699Z,9.40
2018-11-13T11:13:29.934Z,9.50
2018-11-13T11:15:57.964Z,9.50
2018-11-13T11:18:26.153Z,9.50
2018-11-13T11:20:54.280Z,9.60
2018-11-13T11:23:22.527Z,9.60
2018-11-13T11:25:50.610Z,9.60
2018-11-13T11:28:18.745Z,9.70
2018-11-13T11:30:46.900Z,9.70
2018-11-13T11:33:15.031Z,9.80
2018-11-13T11:35:43.165Z,9.80
2018-11-13T11:38:11.321Z,9.90
2018-11-13T11:40:39.538Z,10.00
2018-11-13T11:43:07.704Z,10.00
2018-11-13T11:45:35.889Z,10.10
2018-11-13T11:48:04.192Z,10.20
2018-11-13T11:50:32.473Z,10.20
2018-11-13T11:53:00.725Z,10.30
2018-11-13T11:55:28.853Z,10.30
2018-11-13T11:57:57.129Z,10.30
2018-11-13T12:00:29.788Z,10.30
2018-11-13T12:02:57.899Z,10.40
2018-11-13T12:05:26.208Z,10.40
2018-11-13T12:07:54.389Z,10.50
2018-11-13T12:10:22.828Z,10.50
2018-11-13T12:12:51.652Z,10.60
2018-11-13T12:15:20.187Z,10.70
2018-11-13T12:17:50.440Z,10.70
2018-11-13T12:20:19.144Z,10.80
2018-11-13T12:22:47.328Z,10.80
2018-11-13T12:25:17.744Z,10.80
2018-11-13T12:27:45.895Z,10.80
2018-11-13T12:30:16.988Z,10.90
2018-11-13T12:32:45.780Z,10.90
2018-11-13T12:35:14.972Z,10.90
2018-11-13T12:37:43.112Z,10.80
2018-11-13T12:40:27.245Z,10.90
2018-11-13T12:42:55.452Z,10.90
2018-11-13T12:45:23.596Z,10.90
2018-11-13T12:47:51.720Z,10.90
2018-11-13T12:50:20.498Z,10.90
2018-11-13T12:52:48.628Z,10.90
2018-11-13T12:55:18.795Z,10.90
2018-11-13T12:57:47.126Z,10.90
2018-11-13T13:00:18.825Z,10.90
2018-11-13T13:02:47.005Z,10.80
2018-11-13T13:05:15.160Z,10.90
2018-11-13T13:07:43.410Z,10.90
2018-11-13T13:10:13.060Z,10.80
2018-11-13T13:12:41.300Z,10.80
2018-11-13T13:15:11.409Z,10.90
2018-11-13T13:17:39.843Z,10.90
2018-11-13T13:20:10.413Z,10.90
2018-11-13T13:22:39.033Z,10.90
2018-11-13T13:25:09.569Z,10.90
2018-11-13T13:27:38.145Z,10.90
2018-11-13T13:30:09.302Z,10.90
2018-11-13T13:32:37.569Z,10.90
2018-11-13T13:35:45.788Z,11.00
2018-11-13T13:38:13.970Z,10.90
2018-11-13T13:40:43.269Z,10.80
2018-11-13T13:43:12.221Z,10.80
2018-11-13T13:45:41.124Z,10.80
2018-11-13T13:48:09.237Z,10.70
2018-11-13T13:50:37.687Z,10.70
2018-11-13T13:53:06.337Z,10.70
2018-11-13T13:55:34.450Z,10.70
2018-11-13T13:58:02.641Z,10.80
2018-11-13T14:00:31.221Z,10.90
2018-11-13T14:02:59.569Z,11.10
2018-11-13T14:05:27.705Z,11.20
2018-11-13T14:07:55.872Z,11.20
2018-11-13T14:10:23.993Z,11.10
2018-11-13T14:12:52.152Z,11.10
2018-11-13T14:15:20.431Z,11.10
2018-11-13T14:17:48.508Z,11.00
2018-11-13T14:20:17.882Z,11.00
2018-11-13T14:22:46.138Z,10.90
2018-11-13T14:25:14.677Z,10.90
2018-11-13T14:27:42.984Z,10.90
2018-11-13T14:30:25.241Z,10.90
2018-11-13T14:32:54.379Z,10.80
2018-11-13T14:35:22.731Z,10.80
2018-11-13T14:37:51.232Z,10.70
2018-11-13T14:40:22.508Z,10.80
2018-11-13T14:42:51.003Z,10.70
2018-11-13T14:45:20.187Z,10.70
2018-11-13T14:47:49.215Z,10.70
2018-11-13T14:50:18.711Z,10.70
2018-11-13T14:52:47.484Z,10.70
2018-11-13T14:55:19.986Z,10.70
2018-11-13T14:57:48.648Z,10.70
2018-11-13T15:00:19.175Z,10.70
2018-11-13T15:02:47.726Z,10.60
2018-11-13T15:05:17.162Z,10.70
2018-11-13T15:07:46.432Z,10.60
2018-11-13T15:10:16.439Z,10.70
2018-11-13T15:12:44.635Z,10.70
2018-11-13T15:15:13.234Z,10.70
2018-11-13T15:17:42.361Z,10.60
2018-11-13T15:20:13.389Z,10.60
2018-11-13T15:22:42.311Z,10.50
2018-11-13T15:25:12.424Z,10.50
2018-11-13T15:27:40.787Z,10.40
2018-11-13T15:30:14.304Z,10.30
2018-11-13T15:32:42.947Z,10.20
2018-11-13T15:35:12.472Z,10.10
2018-11-13T15:37:41.168Z,10.00
2018-11-13T15:40:11.467Z,10.00
2018-11-13T15:42:40.671Z,9.90
2018-11-13T15:45:09.264Z,9.80
2018-11-13T15:47:38.488Z,9.80
2018-11-13T15:50:08.855Z,9.70
2018-11-13T15:52:37.097Z,9.60
2018-11-13T15:55:06.336Z,9.50
2018-11-13T15:57:34.515Z,9.50
2018-11-13T16:00:02.785Z,9.40
2018-11-13T16:02:30.980Z,9.40
2018-11-13T16:04:59.178Z,9.30
2018-11-13T16:07:27.363Z,9.20
2018-11-13T16:09:57.833Z,9.20
2018-11-13T16:12:25.987Z,9.20
2018-11-13T16:14:54.118Z,9.10
2018-11-13T16:17:22.458Z,9.00
2018-11-13T16:19:50.632Z,9.00
2018-11-13T16:22:18.807Z,8.90
2018-11-13T16:24:47.211Z,8.90
2018-11-13T16:27:15.475Z,8.80
2018-11-13T16:29:43.734Z,8.80
2018-11-13T16:32:11.875Z,8.70
2018-11-13T16:34:40.060Z,8.70
2018-11-13T16:37:08.329Z,8.60
2018-11-13T16:39:36.443Z,8.60
2018-11-13T16:42:04.909Z,8.60
2018-11-13T16:44:32.978Z,8.50
2018-11-13T16:47:01.200Z,8.50
2018-11-13T16:49:29.470Z,8.40
2018-11-13T16:51:57.683Z,8.30
2018-11-13T16:54:30.127Z,8.20
2018-11-13T16:56:59.369Z,8.10
2018-11-13T16:59:27.459Z,8.00
2018-11-13T17:01:55.651Z,7.90
2018-11-13T17:04:23.871Z,7.80
2018-11-13T17:06:52.219Z,7.80
2018-11-13T17:09:20.299Z,7.70
2018-11-13T17:11:48.620Z,7.70
2018-11-13T17:14:16.735Z,7.70
2018-11-13T17:16:44.816Z,7.70
2018-11-13T17:19:13.012Z,7.60
2018-11-13T17:21:41.239Z,7.50
2018-11-13T17:24:09.393Z,7.50
2018-11-13T17:26:37.600Z,7.50
2018-11-13T17:29:05.826Z,7.60
2018-11-13T17:31:34.056Z,7.60
2018-11-13T17:34:02.375Z,7.60
2018-11-13T17:36:30.572Z,7.70
2018-11-13T17:38:58.763Z,7.70
2018-11-13T17:41:28.460Z,7.70
2018-11-13T17:43:56.701Z,7.70
2018-11-13T17:46:24.870Z,7.70
2018-11-13T17:48:53.072Z,7.70
2018-11-13T17:51:21.312Z,7.70
2018-11-13T17:53:50.756Z,7.80
2018-11-13T17:56:20.872Z,7.80
2018-11-13T17:58:50.155Z,7.80
2018-11-13T18:01:18.365Z,7.80
2018-11-13T18:03:46.582Z,7.80
2018-11-13T18:06:14.808Z,7.80
2018-11-13T18:08:43.972Z,7.70
2018-11-13T18:11:12.390Z,7.70
2018-11-13T18:13:40.573Z,7.70
2018-11-13T18:16:09.650Z,7.70
2018-11-13T18:18:38.333Z,7.70
2018-11-13T18:21:06.720Z,7.60
2018-11-13T18:23:35.052Z,7.50
2018-11-13T18:26:03.204Z,7.50
2018-11-13T18:28:33.687Z,7.40
2018-11-13T18:31:04.136Z,7.40
2018-11-13T18:33:32.551Z,7.50
2018-11-13T18:36:02.453Z,7.40
2018-11-13T18:38:31.725Z,7.30
2018-11-13T18:41:01.068Z,7.30
2018-11-13T18:43:30.526Z,7.30
2018-11-13T18:46:01.734Z,7.20
2018-11-13T18:48:30.911Z,7.20
2018-11-13T18:51:00.571Z,7.10
2018-11-13T18:53:30.720Z,7.10
2018-11-13T18:56:01.606Z,7.10
2018-11-13T18:58:32.835Z,7.10
2018-11-13T19:01:01.332Z,7.00
2018-11-13T19:03:29.708Z,6.90
2018-11-13T19:06:00.006Z,6.90
2018-11-13T19:08:28.454Z,6.80
2018-11-13T19:10:56.958Z,6.80
2018-11-13T19:13:26.715Z,6.80
2018-11-13T19:15:57.794Z,6.80
2018-11-13T19:18:26.039Z,6.70
2018-11-13T19:20:54.211Z,6.70
2018-11-13T19:23:22.854Z,6.70
2018-11-13T19:25:51.159Z,6.60
2018-11-13T19:28:20.295Z,6.60
2018-11-13T19:30:48.584Z,6.50
2018-11-13T19:33:16.769Z,6.50
2018-11-13T19:35:45.306Z,6.50
2018-11-13T19:38:13.234Z,6.40
2018-11-13T19:40:41.471Z,6.40
2018-11-13T19:43:10.644Z,6.40
2018-11-13T19:45:38.831Z,6.30
2018-11-13T19:48:07.053Z,6.30
2018-11-13T19:50:36.274Z,6.30
2018-11-13T19:53:04.531Z,6.30
2018-11-13T19:55:33.199Z,6.20
2018-11-13T19:58:01.415Z,6.20
2018-11-13T20:00:31.591Z,6.20
2018-11-13T20:03:01.104Z,6.10
2018-11-13T20:05:30.090Z,6.00
2018-11-13T20:07:58.584Z,6.00
2018-11-13T20:10:28.181Z,5.90
2018-11-13T20:12:57.731Z,5.90
2018-11-13T20:15:26.788Z,5.90
2018-11-13T20:17:54.976Z,5.90
2018-11-13T20:20:28.307Z,5.90
2018-11-13T20:22:57.101Z,5.80
2018-11-13T20:25:26.533Z,5.90
2018-11-13T20:27:54.832Z,5.80
2018-11-13T20:30:25.161Z,5.80
2018-11-13T20:32:53.434Z,5.80
2018-11-13T20:35:21.701Z,5.70
2018-11-13T20:37:50.686Z,5.70
2018-11-13T20:40:21.071Z,5.70
2018-11-13T20:42:50.694Z,5.70
2018-11-13T20:45:19.151Z,5.70
2018-11-13T20:47:47.517Z,5.70
2018-11-13T20:50:17.134Z,5.70
2018-11-13T20:52:45.852Z,5.60
2018-11-13T20:55:14.189Z,5.60
2018-11-13T20:57:42.526Z,5.50
2018-11-13T21:00:14.892Z,5.50
2018-11-13T21:02:43.365Z,5.50
2018-11-13T21:05:11.695Z,5.50
2018-11-13T21:07:45.616Z,5.40
2018-11-13T21:10:15.451Z,5.40
2018-11-13T21:12:44.366Z,5.30
2018-11-13T21:15:14.460Z,5.20
2018-11-13T21:17:42.853Z,5.20
2018-11-13T21:20:13.251Z,5.10
2018-11-13T21:22:41.679Z,5.10
2018-11-13T21:25:11.615Z,5.10
2018-11-13T21:27:40.363Z,5.10
2018-11-13T21:30:17.134Z,5.00
2018-11-13T21:32:46.383Z,5.00
2018-11-13T21:35:15.074Z,4.90
2018-11-13T21:37:44.916Z,4.90
2018-11-13T21:40:17.489Z,4.90
2018-11-13T21:42:46.796Z,4.90
2018-11-13T21:45:15.595Z,4.80
2018-11-13T21:47:43.939Z,4.80
2018-11-13T21:50:13.712Z,4.80
2018-11-13T21:52:42.055Z,4.80
2018-11-13T21:55:12.166Z,4.70
2018-11-13T21:57:40.387Z,4.70
2018-11-13T22:00:12.931Z,4.60
2018-11-13T22:02:41.220Z,4.50
2018-11-13T22:05:09.517Z,4.50
2018-11-13T22:07:38.243Z,4.40
2018-11-13T22:10:07.475Z,4.30
2018-11-13T22:12:35.761Z,4.30
2018-11-13T22:15:03.969Z,4.20
2018-11-13T22:17:32.219Z,4.10
2018-11-13T22:20:00.663Z,4.10
2018-11-13T22:22:28.943Z,4.10
2018-11-13T22:24:57.118Z,4.00
2018-11-13T22:27:25.392Z,4.00
2018-11-13T22:29:53.627Z,3.90
2018-11-13T22:32:21.819Z,3.90
2018-11-13T22:34:50.088Z,3.90
2018-11-13T22:37:18.334Z,3.90
2018-11-13T22:39:46.702Z,3.80
2018-11-13T22:42:14.833Z,3.80
2018-11-13T22:44:43.056Z,3.80
2018-11-13T22:47:11.487Z,3.80
2018-11-13T22:49:39.703Z,3.80
2018-11-13T22:52:07.876Z,3.80
2018-11-13T22:54:36.091Z,3.80
2018-11-13T22:57:04.304Z,3.90
2018-11-13T22:59:32.492Z,3.90
2018-11-13T23:02:00.663Z,3.90
2018-11-13T23:04:28.863Z,4.00
2018-11-13T23:06:57.052Z,4.00
2018-11-13T23:09:25.243Z,4.00
2018-11-13T23:11:53.485Z,4.00
2018-11-13T23:14:21.684Z,4.00
2018-11-13T23:16:49.906Z,4.10
2018-11-13T23:19:18.091Z,3.90
2018-11-13T23:21:46.372Z,3.90
2018-11-13T23:24:14.744Z,3.90
2018-11-13T23:26:43.164Z,3.90
2018-11-13T23:29:11.387Z,3.80
2018-11-13T23:31:39.627Z,3.80
2018-11-13T23:34:07.945Z,3.80
2018-11-13T23:36:36.361Z,3.80
2018-11-13T23:39:06.364Z,3.80
2018-11-13T23:41:34.794Z,3.80
2018-11-13T23:44:03.053Z,3.80
2018-11-13T23:46:31.208Z,3.80
2018-11-13T23:48:59.424Z,3.80
2018-11-13T23:51:27.656Z,3.80
2018-11-13T23:53:56.066Z,3.80
2018-11-13T23:56:24.204Z,3.80
2018-11-13T23:58:52.414Z,3.90
